sensor_id;sensor_type;location;lat;lon;timestamp;pressure;altitude;pressure_sealevel;temperature;humidity
64632;BME280;58358;50.936;0.246;2022-12-18T00:01:23;101724.35;;;-1.62;58.68
64632;BME280;58358;50.936;0.246;2022-12-18T00:03:47;101721.65;;;-0.91;58.65
64632;BME280;58358;50.936;0.246;2022-12-18T00:06:12;101721.83;;;-0.38;57.48
64632;BME280;58358;50.936;0.246;2022-12-18T00:08:37;101717.93;;;-0.75;59.13
64632;BME280;58358;50.936;0.246;2022-12-18T00:11:04;101716.89;;;-0.33;56.83
64632;BME280;58358;50.936;0.246;2022-12-18T00:13:28;101712.81;;;-0.55;57.11
64632;BME280;58358;50.936;0.246;2022-12-18T00:15:54;101710.08;;;-0.33;57.20
64632;BME280;58358;50.936;0.246;2022-12-18T00:18:19;101706.27;;;-0.86;57.23
64632;BME280;58358;50.936;0.246;2022-12-18T00:20:45;101696.75;;;-1.76;61.42
64632;BME280;58358;50.936;0.246;2022-12-18T00:23:11;101696.10;;;-0.53;58.56
64632;BME280;58358;50.936;0.246;2022-12-18T00:25:36;101699.30;;;-0.61;59.42
64632;BME280;58358;50.936;0.246;2022-12-18T00:28:02;101699.81;;;-1.25;61.67
64632;BME280;58358;50.936;0.246;2022-12-18T00:30:28;101697.69;;;-2.29;65.30
64632;BME280;58358;50.936;0.246;2022-12-18T00:32:54;101695.94;;;-1.47;62.87
64632;BME280;58358;50.936;0.246;2022-12-18T00:35:19;101701.51;;;-0.96;59.83
64632;BME280;58358;50.936;0.246;2022-12-18T00:37:44;101700.96;;;-2.00;62.92
64632;BME280;58358;50.936;0.246;2022-12-18T00:40:10;101704.75;;;-0.24;58.49
64632;BME280;58358;50.936;0.246;2022-12-18T00:42:34;101699.92;;;-1.55;59.64
64632;BME280;58358;50.936;0.246;2022-12-18T00:44:59;101697.77;;;-0.95;59.35
64632;BME280;58358;50.936;0.246;2022-12-18T00:47:25;101695.35;;;-1.19;59.86
64632;BME280;58358;50.936;0.246;2022-12-18T00:49:50;101693.47;;;-0.83;58.79
64632;BME280;58358;50.936;0.246;2022-12-18T00:52:16;101693.85;;;-2.06;60.67
64632;BME280;58358;50.936;0.246;2022-12-18T00:54:41;101696.27;;;-0.55;60.53
64632;BME280;58358;50.936;0.246;2022-12-18T00:57:07;101689.64;;;-0.88;60.66
64632;BME280;58358;50.936;0.246;2022-12-18T00:59:32;101686.68;;;-0.89;59.59
64632;BME280;58358;50.936;0.246;2022-12-18T01:01:57;101681.26;;;-0.99;59.50
64632;BME280;58358;50.936;0.246;2022-12-18T01:04:22;101684.42;;;-0.67;57.76
64632;BME280;58358;50.936;0.246;2022-12-18T01:06:48;101679.96;;;-0.28;57.05
64632;BME280;58358;50.936;0.246;2022-12-18T01:09:13;101683.33;;;-0.53;58.18
64632;BME280;58358;50.936;0.246;2022-12-18T01:11:39;101678.47;;;-0.76;58.65
64632;BME280;58358;50.936;0.246;2022-12-18T01:14:04;101677.34;;;-0.39;57.18
64632;BME280;58358;50.936;0.246;2022-12-18T01:16:30;101675.38;;;-0.59;57.54
64632;BME280;58358;50.936;0.246;2022-12-18T01:18:55;101669.49;;;-0.01;56.45
64632;BME280;58358;50.936;0.246;2022-12-18T01:21:21;101669.43;;;-0.74;56.12
64632;BME280;58358;50.936;0.246;2022-12-18T01:23:46;101660.25;;;0.44;55.98
64632;BME280;58358;50.936;0.246;2022-12-18T01:26:12;101654.32;;;0.30;55.46
64632;BME280;58358;50.936;0.246;2022-12-18T01:28:36;101650.39;;;-1.04;58.54
64632;BME280;58358;50.936;0.246;2022-12-18T01:31:12;101650.75;;;-0.97;57.80
64632;BME280;58358;50.936;0.246;2022-12-18T01:33:28;101647.35;;;-1.34;57.90
64632;BME280;58358;50.936;0.246;2022-12-18T01:35:53;101644.71;;;0.51;55.46
64632;BME280;58358;50.936;0.246;2022-12-18T01:38:20;101632.23;;;-0.42;56.40
64632;BME280;58358;50.936;0.246;2022-12-18T01:40:44;101629.59;;;-0.14;57.87
64632;BME280;58358;50.936;0.246;2022-12-18T01:43:10;101626.78;;;-0.25;58.47
64632;BME280;58358;50.936;0.246;2022-12-18T01:45:35;101627.94;;;-1.02;58.64
64632;BME280;58358;50.936;0.246;2022-12-18T01:48:04;101629.53;;;-1.30;59.46
64632;BME280;58358;50.936;0.246;2022-12-18T01:50:32;101623.64;;;-1.61;61.37
64632;BME280;58358;50.936;0.246;2022-12-18T01:52:53;101613.34;;;-1.06;60.09
64632;BME280;58358;50.936;0.246;2022-12-18T01:55:22;101613.97;;;-1.59;60.46
64632;BME280;58358;50.936;0.246;2022-12-18T01:57:43;101616.17;;;-0.39;59.06
64632;BME280;58358;50.936;0.246;2022-12-18T02:00:11;101620.56;;;-0.83;59.78
64632;BME280;58358;50.936;0.246;2022-12-18T02:02:32;101618.07;;;-0.22;58.34
64632;BME280;58358;50.936;0.246;2022-12-18T02:04:58;101614.82;;;0.28;56.68
64632;BME280;58358;50.936;0.246;2022-12-18T02:07:32;101619.68;;;-0.57;59.03
64632;BME280;58358;50.936;0.246;2022-12-18T02:09:52;101627.73;;;-0.37;60.27
64632;BME280;58358;50.936;0.246;2022-12-18T02:12:19;101626.20;;;-1.28;60.30
64632;BME280;58358;50.936;0.246;2022-12-18T02:14:47;101627.51;;;-1.97;61.40
64632;BME280;58358;50.936;0.246;2022-12-18T02:17:13;101631.36;;;-0.32;58.74
64632;BME280;58358;50.936;0.246;2022-12-18T02:19:46;101634.23;;;-0.08;57.87
64632;BME280;58358;50.936;0.246;2022-12-18T02:22:04;101639.23;;;-0.69;59.87
64632;BME280;58358;50.936;0.246;2022-12-18T02:24:29;101636.59;;;-0.35;60.28
64632;BME280;58358;50.936;0.246;2022-12-18T02:26:49;101639.24;;;0.20;58.74
64632;BME280;58358;50.936;0.246;2022-12-18T02:29:16;101639.22;;;0.45;57.63
64632;BME280;58358;50.936;0.246;2022-12-18T02:31:43;101644.29;;;-0.73;59.87
64632;BME280;58358;50.936;0.246;2022-12-18T02:34:05;101648.89;;;-0.16;59.44
64632;BME280;58358;50.936;0.246;2022-12-18T02:36:33;101645.81;;;-0.49;59.93
64632;BME280;58358;50.936;0.246;2022-12-18T02:38:55;101643.04;;;0.24;58.21
64632;BME280;58358;50.936;0.246;2022-12-18T02:41:21;101640.57;;;0.02;58.98
64632;BME280;58358;50.936;0.246;2022-12-18T02:43:47;101636.13;;;0.49;57.91
64632;BME280;58358;50.936;0.246;2022-12-18T02:46:23;101633.59;;;0.48;56.54
64632;BME280;58358;50.936;0.246;2022-12-18T02:48:37;101630.56;;;0.48;57.21
64632;BME280;58358;50.936;0.246;2022-12-18T02:51:05;101631.97;;;0.38;58.31
64632;BME280;58358;50.936;0.246;2022-12-18T02:53:34;101625.49;;;1.14;55.74
64632;BME280;58358;50.936;0.246;2022-12-18T02:56:00;101625.40;;;0.79;56.31
64632;BME280;58358;50.936;0.246;2022-12-18T02:58:25;101629.75;;;0.65;56.36
64632;BME280;58358;50.936;0.246;2022-12-18T03:00:50;101629.70;;;0.97;56.25
64632;BME280;58358;50.936;0.246;2022-12-18T03:03:14;101628.02;;;0.73;56.58
64632;BME280;58358;50.936;0.246;2022-12-18T03:05:38;101625.79;;;-0.63;58.53
64632;BME280;58358;50.936;0.246;2022-12-18T03:08:05;101616.23;;;0.33;57.63
64632;BME280;58358;50.936;0.246;2022-12-18T03:10:30;101620.44;;;-0.35;58.68
64632;BME280;58358;50.936;0.246;2022-12-18T03:12:53;101607.74;;;0.26;57.95
64632;BME280;58358;50.936;0.246;2022-12-18T03:15:22;101605.50;;;0.04;56.90
64632;BME280;58358;50.936;0.246;2022-12-18T03:17:44;101607.66;;;0.62;56.12
64632;BME280;58358;50.936;0.246;2022-12-18T03:20:10;101606.31;;;0.53;58.26
64632;BME280;58358;50.936;0.246;2022-12-18T03:22:33;101600.82;;;0.68;55.96
64632;BME280;58358;50.936;0.246;2022-12-18T03:24:59;101591.91;;;0.57;56.70
64632;BME280;58358;50.936;0.246;2022-12-18T03:27:24;101586.60;;;0.38;57.44
64632;BME280;58358;50.936;0.246;2022-12-18T03:29:51;101576.28;;;0.47;56.34
64632;BME280;58358;50.936;0.246;2022-12-18T03:32:17;101573.26;;;0.35;55.96
64632;BME280;58358;50.936;0.246;2022-12-18T03:34:41;101578.04;;;-0.36;58.73
64632;BME280;58358;50.936;0.246;2022-12-18T03:37:06;101583.49;;;0.26;58.81
64632;BME280;58358;50.936;0.246;2022-12-18T03:39:30;101581.24;;;0.17;58.49
64632;BME280;58358;50.936;0.246;2022-12-18T03:42:01;101587.20;;;-0.13;60.00
64632;BME280;58358;50.936;0.246;2022-12-18T03:44:27;101581.58;;;0.59;57.84
64632;BME280;58358;50.936;0.246;2022-12-18T03:46:54;101572.72;;;0.75;57.66
64632;BME280;58358;50.936;0.246;2022-12-18T03:49:19;101574.95;;;0.08;60.67
64632;BME280;58358;50.936;0.246;2022-12-18T03:51:42;101571.31;;;-0.37;61.11
64632;BME280;58358;50.936;0.246;2022-12-18T03:54:05;101570.01;;;-0.44;61.32
64632;BME280;58358;50.936;0.246;2022-12-18T03:56:33;101566.81;;;-0.75;61.48
64632;BME280;58358;50.936;0.246;2022-12-18T03:58:54;101562.44;;;-0.22;61.15
64632;BME280;58358;50.936;0.246;2022-12-18T04:01:22;101563.80;;;-0.35;60.55
64632;BME280;58358;50.936;0.246;2022-12-18T04:03:46;101573.01;;;1.03;57.91
64632;BME280;58358;50.936;0.246;2022-12-18T04:06:14;101567.06;;;0.78;58.68
64632;BME280;58358;50.936;0.246;2022-12-18T04:08:36;101562.29;;;0.50;59.05
64632;BME280;58358;50.936;0.246;2022-12-18T04:11:01;101560.22;;;0.24;58.91
64632;BME280;58358;50.936;0.246;2022-12-18T04:13:29;101552.83;;;-0.53;59.38
64632;BME280;58358;50.936;0.246;2022-12-18T04:15:53;101554.79;;;-0.03;60.29
64632;BME280;58358;50.936;0.246;2022-12-18T04:18:17;101552.05;;;-0.94;61.59
64632;BME280;58358;50.936;0.246;2022-12-18T04:20:42;101547.97;;;0.56;58.40
64632;BME280;58358;50.936;0.246;2022-12-18T04:23:08;101546.82;;;0.51;58.01
64632;BME280;58358;50.936;0.246;2022-12-18T04:25:34;101540.87;;;0.47;58.88
64632;BME280;58358;50.936;0.246;2022-12-18T04:27:59;101542.74;;;1.30;57.18
64632;BME280;58358;50.936;0.246;2022-12-18T04:30:24;101539.22;;;0.24;59.65
64632;BME280;58358;50.936;0.246;2022-12-18T04:32:50;101538.87;;;0.25;59.83
64632;BME280;58358;50.936;0.246;2022-12-18T04:35:17;101538.95;;;-0.26;59.81
64632;BME280;58358;50.936;0.246;2022-12-18T04:37:41;101542.05;;;0.58;59.54
64632;BME280;58358;50.936;0.246;2022-12-18T04:40:07;101548.55;;;1.29;57.58
64632;BME280;58358;50.936;0.246;2022-12-18T04:42:32;101547.94;;;0.59;58.95
64632;BME280;58358;50.936;0.246;2022-12-18T04:44:57;101551.59;;;1.39;57.64
64632;BME280;58358;50.936;0.246;2022-12-18T04:47:23;101551.56;;;0.20;58.71
64632;BME280;58358;50.936;0.246;2022-12-18T04:49:48;101547.46;;;0.32;58.66
64632;BME280;58358;50.936;0.246;2022-12-18T04:52:14;101538.56;;;0.29;60.69
64632;BME280;58358;50.936;0.246;2022-12-18T04:54:39;101535.57;;;0.76;58.61
64632;BME280;58358;50.936;0.246;2022-12-18T04:57:03;101527.61;;;0.25;59.43
64632;BME280;58358;50.936;0.246;2022-12-18T04:59:29;101521.94;;;0.61;59.11
64632;BME280;58358;50.936;0.246;2022-12-18T05:01:54;101514.87;;;0.43;60.93
64632;BME280;58358;50.936;0.246;2022-12-18T05:04:19;101513.39;;;0.48;59.86
64632;BME280;58358;50.936;0.246;2022-12-18T05:06:45;101511.70;;;0.47;60.27
64632;BME280;58358;50.936;0.246;2022-12-18T05:09:10;101511.17;;;0.90;59.38
64632;BME280;58358;50.936;0.246;2022-12-18T05:11:36;101505.37;;;0.22;60.76
64632;BME280;58358;50.936;0.246;2022-12-18T05:14:01;101503.74;;;0.11;61.87
64632;BME280;58358;50.936;0.246;2022-12-18T05:16:27;101504.93;;;0.33;60.66
64632;BME280;58358;50.936;0.246;2022-12-18T05:18:52;101507.17;;;0.16;60.87
64632;BME280;58358;50.936;0.246;2022-12-18T05:21:17;101506.68;;;0.23;59.39
64632;BME280;58358;50.936;0.246;2022-12-18T05:23:43;101507.98;;;0.93;59.51
64632;BME280;58358;50.936;0.246;2022-12-18T05:26:08;101509.69;;;0.47;59.29
64632;BME280;58358;50.936;0.246;2022-12-18T05:28:34;101503.78;;;0.60;58.04
64632;BME280;58358;50.936;0.246;2022-12-18T05:31:00;101497.51;;;1.16;58.30
64632;BME280;58358;50.936;0.246;2022-12-18T05:33:25;101491.44;;;0.11;59.45
64632;BME280;58358;50.936;0.246;2022-12-18T05:35:50;101484.00;;;1.30;58.02
64632;BME280;58358;50.936;0.246;2022-12-18T05:38:15;101479.00;;;1.02;57.52
64632;BME280;58358;50.936;0.246;2022-12-18T05:40:42;101473.46;;;1.18;57.33
64632;BME280;58358;50.936;0.246;2022-12-18T05:43:06;101468.72;;;1.50;57.44
64632;BME280;58358;50.936;0.246;2022-12-18T05:45:32;101470.31;;;0.42;60.69
64632;BME280;58358;50.936;0.246;2022-12-18T05:47:56;101473.46;;;0.77;60.06
64632;BME280;58358;50.936;0.246;2022-12-18T05:50:21;101467.93;;;0.87;59.61
64632;BME280;58358;50.936;0.246;2022-12-18T05:52:46;101461.17;;;-0.48;64.42
64632;BME280;58358;50.936;0.246;2022-12-18T05:55:12;101463.43;;;0.34;63.01
64632;BME280;58358;50.936;0.246;2022-12-18T05:57:37;101460.06;;;0.21;63.19
64632;BME280;58358;50.936;0.246;2022-12-18T06:00:04;101457.01;;;0.65;62.30
64632;BME280;58358;50.936;0.246;2022-12-18T06:02:28;101456.76;;;0.04;63.22
64632;BME280;58358;50.936;0.246;2022-12-18T06:04:54;101445.99;;;0.10;63.21
64632;BME280;58358;50.936;0.246;2022-12-18T06:07:20;101442.66;;;-0.17;64.34
64632;BME280;58358;50.936;0.246;2022-12-18T06:09:46;101439.86;;;0.05;64.65
64632;BME280;58358;50.936;0.246;2022-12-18T06:12:10;101441.14;;;-2.35;70.33
64632;BME280;58358;50.936;0.246;2022-12-18T06:14:35;101428.99;;;-0.39;67.12
64632;BME280;58358;50.936;0.246;2022-12-18T06:17:01;101429.85;;;-0.99;70.88
64632;BME280;58358;50.936;0.246;2022-12-18T06:19:27;101432.55;;;-1.00;71.48
64632;BME280;58358;50.936;0.246;2022-12-18T06:21:52;101433.94;;;-1.62;73.82
64632;BME280;58358;50.936;0.246;2022-12-18T06:24:18;101425.84;;;-2.58;75.27
64632;BME280;58358;50.936;0.246;2022-12-18T06:26:43;101417.17;;;-2.04;75.24
64632;BME280;58358;50.936;0.246;2022-12-18T06:29:08;101409.25;;;-0.98;71.90
64632;BME280;58358;50.936;0.246;2022-12-18T06:31:34;101397.57;;;-0.71;70.64
64632;BME280;58358;50.936;0.246;2022-12-18T06:34:01;101384.02;;;-0.62;71.05
64632;BME280;58358;50.936;0.246;2022-12-18T06:36:25;101378.37;;;-1.80;74.70
64632;BME280;58358;50.936;0.246;2022-12-18T06:38:50;101377.15;;;-1.48;74.83
64632;BME280;58358;50.936;0.246;2022-12-18T06:41:18;101371.78;;;-1.89;74.62
64632;BME280;58358;50.936;0.246;2022-12-18T06:43:41;101361.27;;;-0.74;73.05
64632;BME280;58358;50.936;0.246;2022-12-18T06:46:06;101364.39;;;-2.50;77.82
64632;BME280;58358;50.936;0.246;2022-12-18T06:48:33;101358.09;;;-1.14;75.29
64632;BME280;58358;50.936;0.246;2022-12-18T06:50:57;101362.19;;;-1.71;76.96
64632;BME280;58358;50.936;0.246;2022-12-18T06:53:23;101361.30;;;-1.68;76.80
64632;BME280;58358;50.936;0.246;2022-12-18T06:55:50;101364.66;;;-2.24;77.89
64632;BME280;58358;50.936;0.246;2022-12-18T06:58:14;101359.43;;;-1.07;75.67
64632;BME280;58358;50.936;0.246;2022-12-18T07:00:39;101372.74;;;-1.00;74.10
64632;BME280;58358;50.936;0.246;2022-12-18T07:03:05;101368.85;;;-1.04;76.31
64632;BME280;58358;50.936;0.246;2022-12-18T07:05:31;101367.92;;;-2.22;76.15
64632;BME280;58358;50.936;0.246;2022-12-18T07:07:58;101351.40;;;-0.81;73.49
64632;BME280;58358;50.936;0.246;2022-12-18T07:10:22;101346.76;;;-0.37;72.22
64632;BME280;58358;50.936;0.246;2022-12-18T07:12:47;101346.59;;;-0.68;72.03
64632;BME280;58358;50.936;0.246;2022-12-18T07:15:13;101355.09;;;-0.30;71.83
64632;BME280;58358;50.936;0.246;2022-12-18T07:17:38;101351.58;;;-0.39;71.43
64632;BME280;58358;50.936;0.246;2022-12-18T07:20:04;101350.43;;;-0.12;71.85
64632;BME280;58358;50.936;0.246;2022-12-18T07:22:31;101342.23;;;-1.32;75.63
64632;BME280;58358;50.936;0.246;2022-12-18T07:24:54;101337.99;;;0.46;70.36
64632;BME280;58358;50.936;0.246;2022-12-18T07:27:20;101335.62;;;-0.68;73.05
64632;BME280;58358;50.936;0.246;2022-12-18T07:29:45;101327.26;;;-0.64;73.33
64632;BME280;58358;50.936;0.246;2022-12-18T07:32:11;101323.49;;;-0.50;72.65
64632;BME280;58358;50.936;0.246;2022-12-18T07:34:36;101324.73;;;-0.37;72.67
64632;BME280;58358;50.936;0.246;2022-12-18T07:37:01;101316.30;;;-0.09;71.70
64632;BME280;58358;50.936;0.246;2022-12-18T07:39:27;101316.23;;;-0.01;70.75
64632;BME280;58358;50.936;0.246;2022-12-18T07:41:52;101324.16;;;-2.23;75.74
64632;BME280;58358;50.936;0.246;2022-12-18T07:44:18;101328.05;;;-0.73;73.43
64632;BME280;58358;50.936;0.246;2022-12-18T07:46:43;101328.44;;;-0.21;70.48
64632;BME280;58358;50.936;0.246;2022-12-18T07:49:09;101328.83;;;-0.22;71.11
64632;BME280;58358;50.936;0.246;2022-12-18T07:51:34;101326.41;;;0.53;68.88
64632;BME280;58358;50.936;0.246;2022-12-18T07:54:00;101326.50;;;-0.01;68.60
64632;BME280;58358;50.936;0.246;2022-12-18T07:56:27;101322.12;;;-0.08;69.31
64632;BME280;58358;50.936;0.246;2022-12-18T07:58:50;101323.81;;;-1.03;72.50
64632;BME280;58358;50.936;0.246;2022-12-18T08:01:17;101329.10;;;-0.37;70.66
64632;BME280;58358;50.936;0.246;2022-12-18T08:03:41;101330.62;;;0.49;70.96
64632;BME280;58358;50.936;0.246;2022-12-18T08:06:08;101323.86;;;0.74;68.66
64632;BME280;58358;50.936;0.246;2022-12-18T08:08:33;101319.12;;;-0.20;69.58
64632;BME280;58358;50.936;0.246;2022-12-18T08:10:58;101308.02;;;0.87;68.26
64632;BME280;58358;50.936;0.246;2022-12-18T08:13:24;101302.12;;;0.58;68.69
64632;BME280;58358;50.936;0.246;2022-12-18T08:15:55;101301.96;;;0.12;69.11
64632;BME280;58358;50.936;0.246;2022-12-18T08:18:14;101304.31;;;-0.15;71.12
64632;BME280;58358;50.936;0.246;2022-12-18T08:20:39;101305.55;;;-0.64;73.11
64632;BME280;58358;50.936;0.246;2022-12-18T08:23:05;101305.41;;;-1.46;75.14
64632;BME280;58358;50.936;0.246;2022-12-18T08:25:30;101309.51;;;-0.86;73.59
64632;BME280;58358;50.936;0.246;2022-12-18T08:27:56;101313.12;;;-0.43;72.31
64632;BME280;58358;50.936;0.246;2022-12-18T08:30:21;101319.26;;;-0.36;69.48
64632;BME280;58358;50.936;0.246;2022-12-18T08:32:47;101320.41;;;0.28;69.12
64632;BME280;58358;50.936;0.246;2022-12-18T08:35:13;101321.06;;;-1.51;72.33
64632;BME280;58358;50.936;0.246;2022-12-18T08:37:38;101322.41;;;-0.66;70.65
64632;BME280;58358;50.936;0.246;2022-12-18T08:40:05;101321.26;;;0.04;69.75
64632;BME280;58358;50.936;0.246;2022-12-18T08:42:29;101319.81;;;-0.03;68.53
64632;BME280;58358;50.936;0.246;2022-12-18T08:44:57;101312.90;;;0.89;65.36
64632;BME280;58358;50.936;0.246;2022-12-18T08:47:20;101313.33;;;0.03;66.92
64632;BME280;58358;50.936;0.246;2022-12-18T08:49:46;101305.48;;;0.52;66.49
64632;BME280;58358;50.936;0.246;2022-12-18T08:52:11;101304.95;;;0.47;67.14
64632;BME280;58358;50.936;0.246;2022-12-18T08:54:36;101303.32;;;-0.44;69.74
64632;BME280;58358;50.936;0.246;2022-12-18T08:57:02;101307.64;;;-0.08;69.98
64632;BME280;58358;50.936;0.246;2022-12-18T08:59:28;101309.32;;;-0.73;71.92
64632;BME280;58358;50.936;0.246;2022-12-18T09:01:54;101310.07;;;0.26;69.96
64632;BME280;58358;50.936;0.246;2022-12-18T09:04:18;101300.86;;;-1.36;73.21
64632;BME280;58358;50.936;0.246;2022-12-18T09:06:43;101298.94;;;-0.12;72.54
64632;BME280;58358;50.936;0.246;2022-12-18T09:09:09;101302.67;;;-0.24;73.01
64632;BME280;58358;50.936;0.246;2022-12-18T09:11:36;101296.63;;;-1.14;73.67
64632;BME280;58358;50.936;0.246;2022-12-18T09:14:01;101285.23;;;-0.28;71.49
64632;BME280;58358;50.936;0.246;2022-12-18T09:16:27;101299.88;;;-1.05;75.13
64632;BME280;58358;50.936;0.246;2022-12-18T09:18:51;101306.16;;;-0.07;73.01
64632;BME280;58358;50.936;0.246;2022-12-18T09:21:18;101304.06;;;-0.14;70.06
64632;BME280;58358;50.936;0.246;2022-12-18T09:23:42;101306.67;;;0.19;70.21
64632;BME280;58358;50.936;0.246;2022-12-18T09:26:07;101308.13;;;0.44;69.68
64632;BME280;58358;50.936;0.246;2022-12-18T09:28:33;101308.15;;;0.83;68.24
64632;BME280;58358;50.936;0.246;2022-12-18T09:30:58;101308.52;;;0.74;67.06
64632;BME280;58358;50.936;0.246;2022-12-18T09:33:24;101299.14;;;0.94;68.77
64632;BME280;58358;50.936;0.246;2022-12-18T09:35:49;101297.63;;;1.07;67.57
64632;BME280;58358;50.936;0.246;2022-12-18T09:38:18;101304.70;;;0.97;69.25
64632;BME280;58358;50.936;0.246;2022-12-18T09:40:43;101306.53;;;0.73;69.73
64632;BME280;58358;50.936;0.246;2022-12-18T09:43:06;101301.99;;;0.59;71.45
64632;BME280;58358;50.936;0.246;2022-12-18T09:45:35;101295.90;;;0.26;71.45
64632;BME280;58358;50.936;0.246;2022-12-18T09:47:56;101306.44;;;0.55;70.66
64632;BME280;58358;50.936;0.246;2022-12-18T09:50:29;101315.35;;;-0.45;74.13
64632;BME280;58358;50.936;0.246;2022-12-18T09:52:50;101309.04;;;0.54;73.23
64632;BME280;58358;50.936;0.246;2022-12-18T09:55:19;101314.07;;;1.62;69.96
64632;BME280;58358;50.936;0.246;2022-12-18T09:57:42;101317.88;;;1.63;68.67
64632;BME280;58358;50.936;0.246;2022-12-18T10:00:11;101315.28;;;1.19;70.59
64632;BME280;58358;50.936;0.246;2022-12-18T10:02:30;101304.81;;;0.70;71.51
64632;BME280;58358;50.936;0.246;2022-12-18T10:05:03;101311.08;;;1.87;68.46
64632;BME280;58358;50.936;0.246;2022-12-18T10:07:26;101314.32;;;0.70;71.72
64632;BME280;58358;50.936;0.246;2022-12-18T10:09:50;101313.02;;;2.02;68.89
64632;BME280;58358;50.936;0.246;2022-12-18T10:12:17;101320.72;;;1.62;69.07
64632;BME280;58358;50.936;0.246;2022-12-18T10:14:42;101307.18;;;2.71;66.14
64632;BME280;58358;50.936;0.246;2022-12-18T10:17:12;101313.78;;;2.23;66.65
64632;BME280;58358;50.936;0.246;2022-12-18T10:19:36;101310.90;;;2.54;66.87
64632;BME280;58358;50.936;0.246;2022-12-18T10:21:59;101309.75;;;3.53;64.59
64632;BME280;58358;50.936;0.246;2022-12-18T10:24:24;101311.65;;;2.99;63.57
64632;BME280;58358;50.936;0.246;2022-12-18T10:26:44;101307.48;;;3.82;61.39
64632;BME280;58358;50.936;0.246;2022-12-18T10:29:12;101310.47;;;3.91;62.10
64632;BME280;58358;50.936;0.246;2022-12-18T10:31:34;101302.22;;;3.28;63.92
64632;BME280;58358;50.936;0.246;2022-12-18T10:34:00;101297.74;;;3.08;62.91
64632;BME280;58358;50.936;0.246;2022-12-18T10:36:25;101294.24;;;4.10;61.34
64632;BME280;58358;50.936;0.246;2022-12-18T10:38:51;101293.37;;;3.87;61.07
64632;BME280;58358;50.936;0.246;2022-12-18T10:41:25;101283.13;;;3.60;62.30
64632;BME280;58358;50.936;0.246;2022-12-18T10:43:41;101274.05;;;3.82;61.87
64632;BME280;58358;50.936;0.246;2022-12-18T10:46:16;101273.26;;;4.26;61.40
64632;BME280;58358;50.936;0.246;2022-12-18T10:48:34;101269.39;;;3.89;62.00
64632;BME280;58358;50.936;0.246;2022-12-18T10:50:57;101260.39;;;2.80;66.61
64632;BME280;58358;50.936;0.246;2022-12-18T10:53:25;101265.85;;;3.23;64.56
64632;BME280;58358;50.936;0.246;2022-12-18T10:55:49;101264.84;;;3.35;65.27
64632;BME280;58358;50.936;0.246;2022-12-18T10:58:24;101267.02;;;3.77;63.91
64632;BME280;58358;50.936;0.246;2022-12-18T11:00:41;101267.92;;;3.85;64.02
64632;BME280;58358;50.936;0.246;2022-12-18T11:05:32;101258.18;;;3.30;66.02
64632;BME280;58358;50.936;0.246;2022-12-18T11:07:58;101259.15;;;2.81;66.60
64632;BME280;58358;50.936;0.246;2022-12-18T11:10:27;101260.40;;;2.34;68.34
64632;BME280;58358;50.936;0.246;2022-12-18T11:12:47;101248.03;;;2.66;67.83
64632;BME280;58358;50.936;0.246;2022-12-18T11:15:17;101240.15;;;3.23;66.32
64632;BME280;58358;50.936;0.246;2022-12-18T11:17:39;101230.91;;;3.78;64.86
64632;BME280;58358;50.936;0.246;2022-12-18T11:20:06;101230.52;;;2.91;66.06
64632;BME280;58358;50.936;0.246;2022-12-18T11:22:31;101228.77;;;3.47;65.58
64632;BME280;58358;50.936;0.246;2022-12-18T11:24:57;101224.51;;;1.57;70.00
64632;BME280;58358;50.936;0.246;2022-12-18T11:27:20;101223.51;;;1.95;70.92
64632;BME280;58358;50.936;0.246;2022-12-18T11:29:45;101219.42;;;3.02;67.72
64632;BME280;58358;50.936;0.246;2022-12-18T11:32:29;101211.79;;;2.50;67.93
64632;BME280;58358;50.936;0.246;2022-12-18T11:34:36;101209.52;;;2.21;71.77
64632;BME280;58358;50.936;0.246;2022-12-18T11:37:03;101202.89;;;1.92;71.64
64632;BME280;58358;50.936;0.246;2022-12-18T11:39:34;101198.79;;;1.64;72.83
64632;BME280;58358;50.936;0.246;2022-12-18T11:41:58;101199.47;;;1.82;73.48
64632;BME280;58358;50.936;0.246;2022-12-18T11:44:25;101207.72;;;0.34;77.54
64632;BME280;58358;50.936;0.246;2022-12-18T11:46:51;101205.98;;;0.60;80.24
64632;BME280;58358;50.936;0.246;2022-12-18T11:49:14;101207.79;;;2.15;74.25
64632;BME280;58358;50.936;0.246;2022-12-18T11:51:42;101215.01;;;1.01;78.84
64632;BME280;58358;50.936;0.246;2022-12-18T11:54:01;101216.21;;;0.03;81.98
64632;BME280;58358;50.936;0.246;2022-12-18T11:56:32;101214.11;;;0.51;80.30
64632;BME280;58358;50.936;0.246;2022-12-18T11:58:54;101210.23;;;1.97;76.31
64632;BME280;58358;50.936;0.246;2022-12-18T12:01:28;101198.79;;;1.67;76.37
64632;BME280;58358;50.936;0.246;2022-12-18T12:04:06;101192.91;;;1.80;76.48
64632;BME280;58358;50.936;0.246;2022-12-18T12:06:12;101192.46;;;2.02;75.97
64632;BME280;58358;50.936;0.246;2022-12-18T12:08:41;101185.81;;;2.22;74.82
64632;BME280;58358;50.936;0.246;2022-12-18T12:11:04;101184.12;;;1.37;76.94
64632;BME280;58358;50.936;0.246;2022-12-18T12:13:33;101162.53;;;2.13;75.65
64632;BME280;58358;50.936;0.246;2022-12-18T12:15:58;101155.49;;;2.56;74.05
64632;BME280;58358;50.936;0.246;2022-12-18T12:18:24;101150.03;;;2.12;73.33
64632;BME280;58358;50.936;0.246;2022-12-18T12:20:47;101142.23;;;1.86;74.71
64632;BME280;58358;50.936;0.246;2022-12-18T12:23:12;101143.30;;;1.31;78.28
64632;BME280;58358;50.936;0.246;2022-12-18T12:25:37;101141.08;;;1.01;78.62
64632;BME280;58358;50.936;0.246;2022-12-18T12:28:04;101137.25;;;1.25;77.88
64632;BME280;58358;50.936;0.246;2022-12-18T12:30:29;101126.02;;;0.83;79.23
64632;BME280;58358;50.936;0.246;2022-12-18T12:33:00;101124.77;;;1.21;77.96
64632;BME280;58358;50.936;0.246;2022-12-18T12:35:22;101122.92;;;2.27;75.33
64632;BME280;58358;50.936;0.246;2022-12-18T12:37:45;101120.83;;;2.00;76.10
64632;BME280;58358;50.936;0.246;2022-12-18T12:40:04;101118.76;;;2.18;76.27
64632;BME280;58358;50.936;0.246;2022-12-18T12:42:32;101115.88;;;2.20;76.70
64632;BME280;58358;50.936;0.246;2022-12-18T12:44:58;101114.22;;;2.34;76.19
64632;BME280;58358;50.936;0.246;2022-12-18T12:47:22;101117.27;;;1.44;77.49